| Date | Time | Temp. (oF) | Dew Point (oF) | Rel. Hum. (%) | Press. (in.) | Wind Dir. | Wind Speed (mph) | Hourly Rainfall (in.) |
|
|---|---|---|---|---|---|---|---|---|---|
| 1 | 01/11 | 00:00 | 6 | 1 | 83 | 30.59 | SSW | 0 | 0.00 |
| 2 | 01/10 | 23:00 | 8 | 2 | 78 | 30.60 | NNE | 0 | 0.00 |
| 3 | 01/10 | 22:00 | 9 | 2 | 73 | 30.57 | SSE | 0 | 0.00 |
| 4 | 01/10 | 21:00 | 10 | 0 | 65 | 30.56 | NNW | 0 | 0.00 |
| 5 | 01/10 | 20:00 | 13 | 0 | 57 | 30.55 | SSW | 4 | 0.00 |
| 6 | 01/10 | 19:00 | 13 | 0 | 58 | 30.53 | SSW | 0 | 0.00 |
| 7 | 01/10 | 18:00 | 14 | 0 | 53 | 30.51 | SSW | 0 | 0.00 |
| 8 | 01/10 | 17:00 | 16 | 0 | 47 | 30.49 | SSW | 1 | 0.00 |
| 9 | 01/10 | 16:00 | 17 | 0 | 45 | 30.49 | W | 0 | 0.00 |
| 10 | 01/10 | 15:00 | 18 | 0 | 44 | 30.49 | WSW | 4 | 0.00 |
| 11 | 01/10 | 14:00 | 18 | 0 | 46 | 30.51 | SSW | 10 | 0.00 |
| 12 | 01/10 | 13:00 | 16 | 0 | 48 | 30.51 | WNW | 5 | 0.00 |
| 13 | 01/10 | 12:00 | 15 | 0 | 51 | 30.52 | N | 6 | 0.00 |
| 14 | 01/10 | 11:00 | 14 | 0 | 53 | 30.54 | W | 10 | 0.00 |
| 15 | 01/10 | 10:00 | 12 | -1 | 53 | 30.54 | WSW | 11 | 0.00 |
| 16 | 01/10 | 09:00 | 11 | -1 | 57 | 30.51 | SSW | 7 | 0.00 |
| 17 | 01/10 | 08:00 | 9 | -1 | 61 | 30.49 | W | 6 | 0.00 |
| 18 | 01/10 | 07:00 | 9 | -2 | 60 | 30.47 | WSW | 3 | 0.00 |
| 19 | 01/10 | 06:00 | 11 | 0 | 58 | 30.45 | W | 5 | 0.00 |
| 20 | 01/10 | 05:00 | 12 | -1 | 53 | 30.41 | SW | 7 | 0.00 |
| 21 | 01/10 | 04:00 | 13 | -2 | 50 | 30.39 | NNW | 5 | 0.00 |
| 22 | 01/10 | 03:00 | 14 | -2 | 48 | 30.36 | W | 5 | 0.00 |
| 23 | 01/10 | 02:00 | 16 | 0 | 47 | 30.35 | WNW | 9 | 0.00 |
| 24 | 01/10 | 01:00 | 17 | 0 | 47 | 30.30 | WSW | 8 | 0.00 |